Архив погоды в Александровск-Сахалинском

Метеограмма Александровск-Сахалинский
Вторник, 25 Июня
Время местн. Темп Ветер Видим Явления Облачность нижн/средн/верх Атм. давл. Влжн Точка росы ВНГО R Сост. почвы Tg s
Напр Скр Прв ур.ст ур.м изм
13:00 +16.4° Ю 9 19 20 км слабый ливневый дождь облачно 750 753 -1.5 78% +12.5° 1 км - - - -
10:00 +14.3° Ю 6 12 4 км умеренный или сильный ливневый дождь облачно 752 755 -1.3 91% +12.8° 1 км - - - -
07:00 +15° Ю 6 12 20 км слабый ливневый дождь облачно 753 756 -1.7 77% +11.1° 1 км 0 Влажная (без луж) +11° -
04:00 +12.8° В,Ю-В 1 2 20 км - облачно 755 758 -1.1 98% +12.5° 1 км - - - -
01:00 +13° В 1 2 20 км - облачно 756 759 -1.4 98% +12.7° 1 км - - - -
Понедельник, 24 Июня
Время местн. Темп Ветер Видим Явления Облачность нижн/средн/верх Атм. давл. Влжн Точка росы ВНГО R Сост. почвы Tg s
Напр Скр Прв ур.ст ур.м изм
22:00 +13.6° Ю,Ю-З 1 5 20 км - облачно 757 760 0 94% +12.6° 1 км - - - -
19:00 +15.8° Ю,Ю-З 2 5 20 км - облачно 757 760 0 82% +12.7° 1 км 0.6 - - -
16:00 +14.7° Ю-З 4 6 20 км - облачно 757 760 -0.3 81% +11.5° 1 км - - - -
13:00 +13.1° З 2 3 10 км - облачно 758 761 +0.5 91% +11.7° 600 м - - - -
10:00 +12.8° С-З 1 1 20 км ливневый дождь облачно 757 760 0 92% +11.5° 1 км - - - -
07:00 +12.7° штиль 0 2 20 км умеренный или сильный ливневый дождь облачно 757 760 +0.2 93% +11.6° 1 км 0.4 Влажная (без луж) +11° -
04:00 +11.3° С-В 1 2 20 км - облачно 757 760 +0.1 98% +11° 1 км - - - -
01:00 +11.7° З,С-З 1 1 20 км - облачно 757 760 -0.5 97% +11.2° 1 км - - - -
Воскресенье, 23 Июня
Время местн. Темп Ветер Видим Явления Облачность нижн/средн/верх Атм. давл. Влжн Точка росы ВНГО R Сост. почвы Tg s
Напр Скр Прв ур.ст ур.м изм
22:00 +11.8° С 1 2 20 км - преимущественно облачно 758 760 +0.3 94% +10.9° 1 км - - - -
19:00 +13.8° С-З 2 3 20 км - облачно 757 760 -0.2 84% +11.1° 1 км 0.3 - - -
16:00 +14.1° С-З 2 4 20 км небо без изменений {ливневые осадки} облачно с прояснениями 757 760 +0.1 79% +10.6° 1 км - - - -
13:00 +12.6° З,С-З 3 7 20 км ливневый дождь облачно 758 760 -0.5 89% +10.8° 1 км - - - -
10:00 +13.1° С 3 4 20 км - облачно 758 761 +0.5 86% +10.9° 1 км - - - -
07:00 +13.6° С 1 1 20 км - преимущественно облачно 758 760 +0.6 83% +10.8° 1 км 0 Влажная (без луж) - -
04:00 +9.4° В 2 4 20 км - облачно с прояснениями 757 760 -0.5 97% +8.9° - - - - -
01:00 +10.3° В 2 4 20 км - незначительная облачность 757 760 -0.3 98% +10° более 2.5 км - - - -
Суббота, 22 Июня
Время местн. Темп Ветер Видим Явления Облачность нижн/средн/верх Атм. давл. Влжн Точка росы ВНГО R Сост. почвы Tg s
Напр Скр Прв ур.ст ур.м изм
22:00 +10.7° В 2 2 20 км - незначительная облачность 758 761 +0.8 97% +10.3° - - - - -
19:00 +14.1° С 2 3 20 км - переменная облачность 757 760 0 79% +10.5° более 2.5 км 0 - - -
16:00 +16.8° С-З 2 4 20 км - облачно 757 760 -0.7 67% +10.7° 1 км - - - -
13:00 +18° Ю-З 5 9 20 км - облачно 758 760 -0.5 65% +11.3° 1 км - - - -
10:00 +16° З 2 5 20 км - облачно с прояснениями 758 761 +0.2 75% +11.5° 1 км - - - -